sensor_id;sensor_type;location;lat;lon;timestamp;P1;durP1;ratioP1;P2;durP2;ratioP2
64959;SDS011;51487;52.266;10.542;2022-12-16T00:01:07;21.95;;;13.32;;
64959;SDS011;51487;52.266;10.542;2022-12-16T00:03:40;19.15;;;13.68;;
64959;SDS011;51487;52.266;10.542;2022-12-16T00:06:11;19.30;;;13.77;;
64959;SDS011;51487;52.266;10.542;2022-12-16T00:08:37;21.02;;;13.05;;
64959;SDS011;51487;52.266;10.542;2022-12-16T00:11:04;23.00;;;13.23;;
64959;SDS011;51487;52.266;10.542;2022-12-16T00:13:33;17.30;;;12.77;;
64959;SDS011;51487;52.266;10.542;2022-12-16T00:16:05;18.70;;;12.55;;
64959;SDS011;51487;52.266;10.542;2022-12-16T00:18:36;18.23;;;12.30;;
64959;SDS011;51487;52.266;10.542;2022-12-16T00:21:03;15.43;;;11.55;;
64959;SDS011;51487;52.266;10.542;2022-12-16T00:23:29;21.23;;;13.45;;
64959;SDS011;51487;52.266;10.542;2022-12-16T00:25:55;17.77;;;13.50;;
64959;SDS011;51487;52.266;10.542;2022-12-16T00:28:21;21.27;;;14.27;;
64959;SDS011;51487;52.266;10.542;2022-12-16T00:30:47;19.77;;;14.05;;
64959;SDS011;51487;52.266;10.542;2022-12-16T00:33:14;20.13;;;14.25;;
64959;SDS011;51487;52.266;10.542;2022-12-16T00:35:41;24.15;;;15.20;;
64959;SDS011;51487;52.266;10.542;2022-12-16T00:38:07;19.30;;;13.38;;
64959;SDS011;51487;52.266;10.542;2022-12-16T00:40:33;18.90;;;12.45;;
64959;SDS011;51487;52.266;10.542;2022-12-16T00:42:59;22.00;;;13.70;;
64959;SDS011;51487;52.266;10.542;2022-12-16T00:45:25;17.98;;;13.07;;
64959;SDS011;51487;52.266;10.542;2022-12-16T00:47:50;16.80;;;11.93;;
64959;SDS011;51487;52.266;10.542;2022-12-16T00:50:16;17.35;;;12.15;;
64959;SDS011;51487;52.266;10.542;2022-12-16T00:52:44;19.13;;;12.43;;
64959;SDS011;51487;52.266;10.542;2022-12-16T00:55:11;20.92;;;13.10;;
64959;SDS011;51487;52.266;10.542;2022-12-16T00:57:37;18.15;;;13.10;;
64959;SDS011;51487;52.266;10.542;2022-12-16T01:00:03;18.23;;;11.60;;
64959;SDS011;51487;52.266;10.542;2022-12-16T01:02:30;18.23;;;12.50;;
64959;SDS011;51487;52.266;10.542;2022-12-16T01:04:56;18.42;;;12.73;;
64959;SDS011;51487;52.266;10.542;2022-12-16T01:07:22;15.38;;;11.82;;
64959;SDS011;51487;52.266;10.542;2022-12-16T01:09:47;15.63;;;11.82;;
64959;SDS011;51487;52.266;10.542;2022-12-16T01:12:13;17.88;;;12.93;;
64959;SDS011;51487;52.266;10.542;2022-12-16T01:14:38;16.20;;;12.63;;
64959;SDS011;51487;52.266;10.542;2022-12-16T01:17:04;21.27;;;13.20;;
64959;SDS011;51487;52.266;10.542;2022-12-16T01:19:30;19.98;;;13.05;;
64959;SDS011;51487;52.266;10.542;2022-12-16T01:21:55;18.33;;;13.15;;
64959;SDS011;51487;52.266;10.542;2022-12-16T01:24:21;19.77;;;13.98;;
64959;SDS011;51487;52.266;10.542;2022-12-16T01:26:46;18.35;;;12.45;;
64959;SDS011;51487;52.266;10.542;2022-12-16T01:29:12;19.65;;;13.88;;
64959;SDS011;51487;52.266;10.542;2022-12-16T01:31:37;22.67;;;13.43;;
64959;SDS011;51487;52.266;10.542;2022-12-16T01:34:03;19.80;;;13.02;;
64959;SDS011;51487;52.266;10.542;2022-12-16T01:36:29;22.42;;;13.63;;
64959;SDS011;51487;52.266;10.542;2022-12-16T01:38:54;19.83;;;13.13;;
64959;SDS011;51487;52.266;10.542;2022-12-16T01:41:20;18.73;;;12.38;;
64959;SDS011;51487;52.266;10.542;2022-12-16T01:43:45;17.05;;;13.00;;
64959;SDS011;51487;52.266;10.542;2022-12-16T01:51:46;16.05;;;12.07;;
64959;SDS011;51487;52.266;10.542;2022-12-16T01:54:13;21.02;;;13.05;;
64959;SDS011;51487;52.266;10.542;2022-12-16T01:56:45;17.65;;;12.75;;
64959;SDS011;51487;52.266;10.542;2022-12-16T01:59:18;17.35;;;13.02;;
64959;SDS011;51487;52.266;10.542;2022-12-16T02:01:48;19.15;;;13.15;;
64959;SDS011;51487;52.266;10.542;2022-12-16T02:04:14;17.10;;;13.00;;
64959;SDS011;51487;52.266;10.542;2022-12-16T02:06:40;15.93;;;12.00;;
64959;SDS011;51487;52.266;10.542;2022-12-16T02:09:06;21.17;;;13.20;;
64959;SDS011;51487;52.266;10.542;2022-12-16T02:17:19;18.00;;;11.45;;
64959;SDS011;51487;52.266;10.542;2022-12-16T02:25:32;15.50;;;11.38;;
64959;SDS011;51487;52.266;10.542;2022-12-16T02:37:50;18.90;;;11.63;;
64959;SDS011;51487;52.266;10.542;2022-12-16T02:43:01;15.68;;;11.25;;
64959;SDS011;51487;52.266;10.542;2022-12-16T02:45:35;17.83;;;12.23;;
64959;SDS011;51487;52.266;10.542;2022-12-16T02:48:01;18.45;;;11.80;;
64959;SDS011;51487;52.266;10.542;2022-12-16T02:50:44;17.17;;;11.55;;
64959;SDS011;51487;52.266;10.542;2022-12-16T02:53:14;16.80;;;10.68;;
64959;SDS011;51487;52.266;10.542;2022-12-16T02:58:44;16.92;;;10.90;;
64959;SDS011;51487;52.266;10.542;2022-12-16T03:03:54;19.42;;;11.88;;
64959;SDS011;51487;52.266;10.542;2022-12-16T03:06:21;19.00;;;11.95;;
64959;SDS011;51487;52.266;10.542;2022-12-16T03:08:51;16.33;;;11.57;;
64959;SDS011;51487;52.266;10.542;2022-12-16T03:11:24;16.88;;;11.52;;
64959;SDS011;51487;52.266;10.542;2022-12-16T03:13:54;20.08;;;11.85;;
64959;SDS011;51487;52.266;10.542;2022-12-16T03:16:23;17.85;;;11.55;;
64959;SDS011;51487;52.266;10.542;2022-12-16T03:18:58;19.20;;;11.95;;
64959;SDS011;51487;52.266;10.542;2022-12-16T03:21:30;17.60;;;11.15;;
64959;SDS011;51487;52.266;10.542;2022-12-16T03:24:21;14.75;;;11.13;;
64959;SDS011;51487;52.266;10.542;2022-12-16T03:26:50;15.48;;;12.00;;
64959;SDS011;51487;52.266;10.542;2022-12-16T03:32:49;17.73;;;11.13;;
64959;SDS011;51487;52.266;10.542;2022-12-16T03:35:24;19.17;;;10.65;;
64959;SDS011;51487;52.266;10.542;2022-12-16T03:38:03;15.43;;;10.63;;
64959;SDS011;51487;52.266;10.542;2022-12-16T03:40:32;18.10;;;11.50;;
64959;SDS011;51487;52.266;10.542;2022-12-16T03:42:59;16.42;;;10.50;;
64959;SDS011;51487;52.266;10.542;2022-12-16T03:45:32;12.93;;;9.98;;
64959;SDS011;51487;52.266;10.542;2022-12-16T03:48:05;17.90;;;11.57;;
64959;SDS011;51487;52.266;10.542;2022-12-16T03:50:32;16.65;;;10.73;;
64959;SDS011;51487;52.266;10.542;2022-12-16T03:53:00;14.75;;;11.38;;
64959;SDS011;51487;52.266;10.542;2022-12-16T03:55:26;16.77;;;10.65;;
64959;SDS011;51487;52.266;10.542;2022-12-16T03:57:52;13.88;;;10.68;;
64959;SDS011;51487;52.266;10.542;2022-12-16T04:00:19;17.52;;;10.80;;
64959;SDS011;51487;52.266;10.542;2022-12-16T04:02:45;16.23;;;11.82;;
64959;SDS011;51487;52.266;10.542;2022-12-16T04:05:11;18.10;;;12.52;;
64959;SDS011;51487;52.266;10.542;2022-12-16T04:07:37;15.77;;;11.80;;
64959;SDS011;51487;52.266;10.542;2022-12-16T04:10:03;17.95;;;12.05;;
64959;SDS011;51487;52.266;10.542;2022-12-16T04:12:30;16.40;;;10.93;;
64959;SDS011;51487;52.266;10.542;2022-12-16T04:15:14;15.20;;;10.93;;
64959;SDS011;51487;52.266;10.542;2022-12-16T04:17:58;14.30;;;11.38;;
64959;SDS011;51487;52.266;10.542;2022-12-16T04:20:43;14.27;;;10.68;;
64959;SDS011;51487;52.266;10.542;2022-12-16T04:23:31;14.63;;;10.65;;
64959;SDS011;51487;52.266;10.542;2022-12-16T04:26:19;16.15;;;11.40;;
64959;SDS011;51487;52.266;10.542;2022-12-16T04:28:45;14.55;;;9.93;;
64959;SDS011;51487;52.266;10.542;2022-12-16T04:31:11;18.15;;;11.27;;
64959;SDS011;51487;52.266;10.542;2022-12-16T04:33:36;17.73;;;12.70;;
64959;SDS011;51487;52.266;10.542;2022-12-16T04:36:21;17.30;;;11.57;;
64959;SDS011;51487;52.266;10.542;2022-12-16T04:39:05;20.17;;;11.32;;
64959;SDS011;51487;52.266;10.542;2022-12-16T04:41:52;16.38;;;10.63;;
64959;SDS011;51487;52.266;10.542;2022-12-16T04:44:37;20.52;;;10.80;;
64959;SDS011;51487;52.266;10.542;2022-12-16T04:47:21;14.95;;;11.98;;
64959;SDS011;51487;52.266;10.542;2022-12-16T04:50:06;16.50;;;10.70;;
64959;SDS011;51487;52.266;10.542;2022-12-16T04:52:51;18.92;;;11.45;;
64959;SDS011;51487;52.266;10.542;2022-12-16T04:55:36;16.05;;;11.52;;
64959;SDS011;51487;52.266;10.542;2022-12-16T04:58:21;14.90;;;10.82;;
64959;SDS011;51487;52.266;10.542;2022-12-16T05:01:05;16.77;;;11.30;;
64959;SDS011;51487;52.266;10.542;2022-12-16T05:03:49;16.17;;;11.25;;
64959;SDS011;51487;52.266;10.542;2022-12-16T05:06:33;18.02;;;11.18;;
64959;SDS011;51487;52.266;10.542;2022-12-16T05:09:17;17.42;;;11.98;;
64959;SDS011;51487;52.266;10.542;2022-12-16T05:12:01;17.27;;;11.57;;
64959;SDS011;51487;52.266;10.542;2022-12-16T05:14:45;13.77;;;10.55;;
64959;SDS011;51487;52.266;10.542;2022-12-16T05:17:29;18.35;;;11.35;;
64959;SDS011;51487;52.266;10.542;2022-12-16T05:20:13;15.00;;;10.43;;
64959;SDS011;51487;52.266;10.542;2022-12-16T05:22:57;15.65;;;11.10;;
64959;SDS011;51487;52.266;10.542;2022-12-16T05:25:41;16.23;;;11.60;;
64959;SDS011;51487;52.266;10.542;2022-12-16T05:28:25;15.57;;;10.88;;
64959;SDS011;51487;52.266;10.542;2022-12-16T05:31:09;16.10;;;11.50;;
64959;SDS011;51487;52.266;10.542;2022-12-16T05:33:53;22.08;;;12.48;;
64959;SDS011;51487;52.266;10.542;2022-12-16T05:36:37;17.20;;;11.45;;
64959;SDS011;51487;52.266;10.542;2022-12-16T05:39:21;16.60;;;11.30;;
64959;SDS011;51487;52.266;10.542;2022-12-16T05:42:05;17.05;;;11.93;;
64959;SDS011;51487;52.266;10.542;2022-12-16T05:44:49;16.70;;;11.48;;
64959;SDS011;51487;52.266;10.542;2022-12-16T05:47:33;15.15;;;11.50;;
64959;SDS011;51487;52.266;10.542;2022-12-16T05:50:17;18.13;;;11.35;;
64959;SDS011;51487;52.266;10.542;2022-12-16T05:53:01;15.93;;;10.85;;
64959;SDS011;51487;52.266;10.542;2022-12-16T05:55:45;13.43;;;10.57;;
64959;SDS011;51487;52.266;10.542;2022-12-16T05:58:29;16.35;;;11.15;;
64959;SDS011;51487;52.266;10.542;2022-12-16T06:01:13;13.23;;;10.27;;
64959;SDS011;51487;52.266;10.542;2022-12-16T06:03:58;13.73;;;10.23;;
64959;SDS011;51487;52.266;10.542;2022-12-16T06:06:42;14.32;;;10.48;;
64959;SDS011;51487;52.266;10.542;2022-12-16T06:09:26;18.88;;;11.65;;
64959;SDS011;51487;52.266;10.542;2022-12-16T06:12:10;20.15;;;10.98;;
64959;SDS011;51487;52.266;10.542;2022-12-16T06:14:55;16.02;;;10.65;;
64959;SDS011;51487;52.266;10.542;2022-12-16T06:17:46;20.02;;;10.85;;
64959;SDS011;51487;52.266;10.542;2022-12-16T06:20:32;15.27;;;10.90;;
64959;SDS011;51487;52.266;10.542;2022-12-16T06:23:16;15.50;;;10.63;;
64959;SDS011;51487;52.266;10.542;2022-12-16T06:26:01;18.92;;;11.75;;
64959;SDS011;51487;52.266;10.542;2022-12-16T06:28:45;14.80;;;10.60;;
64959;SDS011;51487;52.266;10.542;2022-12-16T06:31:29;17.13;;;10.85;;
64959;SDS011;51487;52.266;10.542;2022-12-16T06:34:12;16.33;;;11.60;;
64959;SDS011;51487;52.266;10.542;2022-12-16T06:36:57;15.10;;;10.80;;
64959;SDS011;51487;52.266;10.542;2022-12-16T06:39:40;14.65;;;11.00;;
64959;SDS011;51487;52.266;10.542;2022-12-16T06:42:24;17.33;;;11.00;;
64959;SDS011;51487;52.266;10.542;2022-12-16T06:45:09;15.50;;;11.70;;
64959;SDS011;51487;52.266;10.542;2022-12-16T06:47:53;20.23;;;12.93;;
64959;SDS011;51487;52.266;10.542;2022-12-16T06:50:38;16.45;;;12.48;;
64959;SDS011;51487;52.266;10.542;2022-12-16T06:53:22;16.05;;;11.60;;
64959;SDS011;51487;52.266;10.542;2022-12-16T06:56:07;16.38;;;12.23;;
64959;SDS011;51487;52.266;10.542;2022-12-16T06:58:51;15.15;;;12.38;;
64959;SDS011;51487;52.266;10.542;2022-12-16T07:01:35;21.50;;;12.90;;
64959;SDS011;51487;52.266;10.542;2022-12-16T07:04:20;18.80;;;12.23;;
64959;SDS011;51487;52.266;10.542;2022-12-16T07:07:04;16.42;;;11.50;;
64959;SDS011;51487;52.266;10.542;2022-12-16T07:09:48;16.80;;;11.10;;
64959;SDS011;51487;52.266;10.542;2022-12-16T07:12:32;18.55;;;11.65;;
64959;SDS011;51487;52.266;10.542;2022-12-16T07:15:16;16.02;;;12.10;;
64959;SDS011;51487;52.266;10.542;2022-12-16T07:18:00;18.63;;;11.65;;
64959;SDS011;51487;52.266;10.542;2022-12-16T07:20:44;20.40;;;12.25;;
64959;SDS011;51487;52.266;10.542;2022-12-16T07:23:28;19.02;;;12.50;;
64959;SDS011;51487;52.266;10.542;2022-12-16T07:26:12;16.98;;;12.40;;
64959;SDS011;51487;52.266;10.542;2022-12-16T07:28:56;15.32;;;11.18;;
64959;SDS011;51487;52.266;10.542;2022-12-16T07:31:40;17.13;;;11.88;;
64959;SDS011;51487;52.266;10.542;2022-12-16T07:34:24;17.63;;;12.10;;
64959;SDS011;51487;52.266;10.542;2022-12-16T07:37:08;16.23;;;11.60;;
64959;SDS011;51487;52.266;10.542;2022-12-16T07:39:52;17.33;;;12.40;;
64959;SDS011;51487;52.266;10.542;2022-12-16T07:42:36;17.30;;;11.95;;
64959;SDS011;51487;52.266;10.542;2022-12-16T07:45:24;18.98;;;11.73;;
64959;SDS011;51487;52.266;10.542;2022-12-16T07:48:08;19.95;;;11.85;;
64959;SDS011;51487;52.266;10.542;2022-12-16T07:50:52;20.38;;;12.98;;
64959;SDS011;51487;52.266;10.542;2022-12-16T07:53:36;21.05;;;11.82;;
64959;SDS011;51487;52.266;10.542;2022-12-16T07:56:20;20.15;;;12.90;;
64959;SDS011;51487;52.266;10.542;2022-12-16T07:59:04;16.13;;;12.55;;
64959;SDS011;51487;52.266;10.542;2022-12-16T08:01:48;20.63;;;12.95;;
64959;SDS011;51487;52.266;10.542;2022-12-16T08:04:32;18.25;;;12.35;;
64959;SDS011;51487;52.266;10.542;2022-12-16T08:07:16;20.42;;;12.85;;
64959;SDS011;51487;52.266;10.542;2022-12-16T08:09:59;17.23;;;12.20;;
64959;SDS011;51487;52.266;10.542;2022-12-16T08:12:43;22.23;;;12.63;;
64959;SDS011;51487;52.266;10.542;2022-12-16T08:15:27;21.42;;;14.40;;
64959;SDS011;51487;52.266;10.542;2022-12-16T08:18:11;22.30;;;14.02;;
64959;SDS011;51487;52.266;10.542;2022-12-16T08:20:55;18.92;;;12.75;;
64959;SDS011;51487;52.266;10.542;2022-12-16T08:23:39;18.48;;;12.25;;
64959;SDS011;51487;52.266;10.542;2022-12-16T08:26:23;13.43;;;11.23;;
64959;SDS011;51487;52.266;10.542;2022-12-16T08:29:07;18.48;;;12.93;;
64959;SDS011;51487;52.266;10.542;2022-12-16T08:31:54;20.13;;;12.73;;
64959;SDS011;51487;52.266;10.542;2022-12-16T08:34:38;17.27;;;12.30;;
64959;SDS011;51487;52.266;10.542;2022-12-16T08:37:22;15.77;;;11.93;;
64959;SDS011;51487;52.266;10.542;2022-12-16T08:40:06;17.98;;;13.43;;
64959;SDS011;51487;52.266;10.542;2022-12-16T08:42:51;20.33;;;13.95;;
64959;SDS011;51487;52.266;10.542;2022-12-16T08:45:34;22.25;;;13.55;;
64959;SDS011;51487;52.266;10.542;2022-12-16T08:48:19;18.35;;;12.25;;
64959;SDS011;51487;52.266;10.542;2022-12-16T08:51:04;22.15;;;13.80;;
64959;SDS011;51487;52.266;10.542;2022-12-16T08:53:50;21.48;;;12.93;;
64959;SDS011;51487;52.266;10.542;2022-12-16T08:56:34;22.70;;;13.15;;
64959;SDS011;51487;52.266;10.542;2022-12-16T08:59:18;22.17;;;14.57;;
64959;SDS011;51487;52.266;10.542;2022-12-16T09:02:02;18.63;;;12.60;;
64959;SDS011;51487;52.266;10.542;2022-12-16T09:04:47;18.70;;;13.02;;
64959;SDS011;51487;52.266;10.542;2022-12-16T09:07:31;18.15;;;12.35;;
64959;SDS011;51487;52.266;10.542;2022-12-16T09:10:22;21.92;;;13.68;;
64959;SDS011;51487;52.266;10.542;2022-12-16T09:13:07;25.13;;;13.88;;
64959;SDS011;51487;52.266;10.542;2022-12-16T09:15:56;23.30;;;14.23;;
64959;SDS011;51487;52.266;10.542;2022-12-16T09:18:41;19.67;;;14.27;;
64959;SDS011;51487;52.266;10.542;2022-12-16T09:21:25;24.90;;;14.10;;
64959;SDS011;51487;52.266;10.542;2022-12-16T09:24:09;22.52;;;13.63;;
64959;SDS011;51487;52.266;10.542;2022-12-16T09:26:53;22.75;;;14.48;;
64959;SDS011;51487;52.266;10.542;2022-12-16T09:29:37;21.15;;;14.30;;
64959;SDS011;51487;52.266;10.542;2022-12-16T09:32:21;21.70;;;13.55;;
64959;SDS011;51487;52.266;10.542;2022-12-16T09:35:05;23.27;;;13.80;;
64959;SDS011;51487;52.266;10.542;2022-12-16T09:37:50;21.50;;;14.65;;
64959;SDS011;51487;52.266;10.542;2022-12-16T09:40:35;19.00;;;13.00;;
64959;SDS011;51487;52.266;10.542;2022-12-16T09:52:28;21.35;;;12.52;;
64959;SDS011;51487;52.266;10.542;2022-12-16T09:55:26;20.33;;;13.07;;
64959;SDS011;51487;52.266;10.542;2022-12-16T09:58:25;23.55;;;13.70;;
64959;SDS011;51487;52.266;10.542;2022-12-16T10:01:15;20.30;;;13.55;;
64959;SDS011;51487;52.266;10.542;2022-12-16T10:03:59;19.67;;;13.25;;
64959;SDS011;51487;52.266;10.542;2022-12-16T10:06:45;21.48;;;13.95;;
64959;SDS011;51487;52.266;10.542;2022-12-16T10:13:02;19.42;;;13.60;;
64959;SDS011;51487;52.266;10.542;2022-12-16T10:25:27;20.83;;;13.07;;
64959;SDS011;51487;52.266;10.542;2022-12-16T10:28:45;19.88;;;13.07;;
64959;SDS011;51487;52.266;10.542;2022-12-16T10:31:34;20.27;;;14.18;;
64959;SDS011;51487;52.266;10.542;2022-12-16T10:34:25;19.92;;;13.65;;
64959;SDS011;51487;52.266;10.542;2022-12-16T10:37:15;21.17;;;13.03;;
64959;SDS011;51487;52.266;10.542;2022-12-16T10:40:23;20.20;;;14.93;;
64959;SDS011;51487;52.266;10.542;2022-12-16T10:43:14;22.63;;;13.77;;
64959;SDS011;51487;52.266;10.542;2022-12-16T10:46:15;22.23;;;14.52;;
64959;SDS011;51487;52.266;10.542;2022-12-16T10:49:07;20.30;;;14.15;;
64959;SDS011;51487;52.266;10.542;2022-12-16T10:51:57;23.38;;;13.90;;
64959;SDS011;51487;52.266;10.542;2022-12-16T10:54:41;19.17;;;13.40;;
64959;SDS011;51487;52.266;10.542;2022-12-16T11:00:52;21.38;;;13.20;;
64959;SDS011;51487;52.266;10.542;2022-12-16T11:03:37;22.00;;;14.52;;
64959;SDS011;51487;52.266;10.542;2022-12-16T11:06:36;20.08;;;14.50;;
64959;SDS011;51487;52.266;10.542;2022-12-16T11:09:27;23.20;;;14.45;;
64959;SDS011;51487;52.266;10.542;2022-12-16T11:12:19;22.42;;;14.55;;
64959;SDS011;51487;52.266;10.542;2022-12-16T11:15:23;23.95;;;16.00;;
64959;SDS011;51487;52.266;10.542;2022-12-16T11:18:15;24.40;;;15.32;;
64959;SDS011;51487;52.266;10.542;2022-12-16T11:24:14;23.25;;;15.93;;
64959;SDS011;51487;52.266;10.542;2022-12-16T11:27:03;23.88;;;16.55;;
64959;SDS011;51487;52.266;10.542;2022-12-16T11:35:59;21.98;;;13.98;;
64959;SDS011;51487;52.266;10.542;2022-12-16T11:39:14;23.67;;;14.88;;
64959;SDS011;51487;52.266;10.542;2022-12-16T11:42:02;17.85;;;13.18;;
64959;SDS011;51487;52.266;10.542;2022-12-16T11:44:49;25.98;;;14.15;;
64959;SDS011;51487;52.266;10.542;2022-12-16T11:47:54;21.27;;;13.90;;
64959;SDS011;51487;52.266;10.542;2022-12-16T11:50:49;24.58;;;13.63;;
64959;SDS011;51487;52.266;10.542;2022-12-16T11:53:44;24.40;;;15.38;;
64959;SDS011;51487;52.266;10.542;2022-12-16T11:56:41;24.48;;;14.55;;
64959;SDS011;51487;52.266;10.542;2022-12-16T11:59:35;22.83;;;15.25;;
64959;SDS011;51487;52.266;10.542;2022-12-16T12:02:43;29.40;;;14.95;;
64959;SDS011;51487;52.266;10.542;2022-12-16T12:09:14;24.27;;;15.82;;
64959;SDS011;51487;52.266;10.542;2022-12-16T12:15:22;20.23;;;14.23;;
64959;SDS011;51487;52.266;10.542;2022-12-16T12:30:44;20.00;;;13.10;;
64959;SDS011;51487;52.266;10.542;2022-12-16T12:40:15;24.05;;;13.90;;
64959;SDS011;51487;52.266;10.542;2022-12-16T12:46:52;23.67;;;14.68;;
64959;SDS011;51487;52.266;10.542;2022-12-16T12:58:50;20.75;;;14.48;;
64959;SDS011;51487;52.266;10.542;2022-12-16T13:01:43;23.50;;;15.67;;
64959;SDS011;51487;52.266;10.542;2022-12-16T13:04:29;24.58;;;16.13;;
64959;SDS011;51487;52.266;10.542;2022-12-16T13:07:16;27.83;;;15.55;;
64959;SDS011;51487;52.266;10.542;2022-12-16T13:10:25;25.67;;;15.55;;
64959;SDS011;51487;52.266;10.542;2022-12-16T13:16:03;21.13;;;16.20;;
64959;SDS011;51487;52.266;10.542;2022-12-16T13:19:42;21.40;;;16.00;;
64959;SDS011;51487;52.266;10.542;2022-12-16T13:25:43;21.30;;;16.05;;
64959;SDS011;51487;52.266;10.542;2022-12-16T13:28:35;21.60;;;15.07;;
64959;SDS011;51487;52.266;10.542;2022-12-16T13:31:23;22.83;;;16.40;;
64959;SDS011;51487;52.266;10.542;2022-12-16T13:37:02;21.05;;;15.18;;
64959;SDS011;51487;52.266;10.542;2022-12-16T13:44:07;25.15;;;15.75;;
64959;SDS011;51487;52.266;10.542;2022-12-16T13:49:53;22.10;;;14.68;;
64959;SDS011;51487;52.266;10.542;2022-12-16T13:52:40;23.50;;;14.80;;
64959;SDS011;51487;52.266;10.542;2022-12-16T13:55:58;23.17;;;15.35;;
64959;SDS011;51487;52.266;10.542;2022-12-16T13:58:45;22.70;;;16.05;;
64959;SDS011;51487;52.266;10.542;2022-12-16T14:01:37;20.80;;;15.35;;
64959;SDS011;51487;52.266;10.542;2022-12-16T14:04:42;26.77;;;16.35;;
64959;SDS011;51487;52.266;10.542;2022-12-16T14:07:29;27.00;;;16.23;;
64959;SDS011;51487;52.266;10.542;2022-12-16T14:13:32;24.85;;;16.55;;
64959;SDS011;51487;52.266;10.542;2022-12-16T14:22:50;21.17;;;15.82;;
64959;SDS011;51487;52.266;10.542;2022-12-16T14:25:43;24.60;;;16.60;;
64959;SDS011;51487;52.266;10.542;2022-12-16T14:28:33;23.80;;;16.50;;
64959;SDS011;51487;52.266;10.542;2022-12-16T14:31:29;27.50;;;17.25;;
64959;SDS011;51487;52.266;10.542;2022-12-16T14:34:27;25.48;;;16.55;;
64959;SDS011;51487;52.266;10.542;2022-12-16T14:37:21;21.45;;;16.55;;
64959;SDS011;51487;52.266;10.542;2022-12-16T14:43:20;24.77;;;16.88;;
64959;SDS011;51487;52.266;10.542;2022-12-16T14:46:26;22.27;;;15.90;;
64959;SDS011;51487;52.266;10.542;2022-12-16T14:49:22;22.25;;;16.52;;
64959;SDS011;51487;52.266;10.542;2022-12-16T14:52:19;22.67;;;16.52;;
64959;SDS011;51487;52.266;10.542;2022-12-16T14:55:13;23.27;;;16.80;;
64959;SDS011;51487;52.266;10.542;2022-12-16T15:01:11;22.45;;;15.90;;
64959;SDS011;51487;52.266;10.542;2022-12-16T15:04:09;22.35;;;17.25;;
64959;SDS011;51487;52.266;10.542;2022-12-16T15:07:07;21.42;;;15.90;;
64959;SDS011;51487;52.266;10.542;2022-12-16T15:09:56;22.98;;;17.13;;
64959;SDS011;51487;52.266;10.542;2022-12-16T15:12:43;21.50;;;16.83;;
64959;SDS011;51487;52.266;10.542;2022-12-16T15:18:34;23.45;;;16.58;;
64959;SDS011;51487;52.266;10.542;2022-12-16T15:21:27;25.13;;;16.77;;
64959;SDS011;51487;52.266;10.542;2022-12-16T15:24:19;21.23;;;16.13;;
64959;SDS011;51487;52.266;10.542;2022-12-16T15:27:32;23.90;;;16.38;;
64959;SDS011;51487;52.266;10.542;2022-12-16T15:30:33;27.63;;;16.38;;
64959;SDS011;51487;52.266;10.542;2022-12-16T15:33:27;25.10;;;17.08;;
64959;SDS011;51487;52.266;10.542;2022-12-16T15:36:25;24.77;;;17.13;;
64959;SDS011;51487;52.266;10.542;2022-12-16T15:39:24;21.20;;;16.23;;
64959;SDS011;51487;52.266;10.542;2022-12-16T15:42:29;30.08;;;19.75;;
64959;SDS011;51487;52.266;10.542;2022-12-16T15:45:22;26.10;;;17.75;;
64959;SDS011;51487;52.266;10.542;2022-12-16T15:48:12;25.30;;;18.25;;
64959;SDS011;51487;52.266;10.542;2022-12-16T15:51:18;28.65;;;19.58;;
64959;SDS011;51487;52.266;10.542;2022-12-16T15:54:24;25.95;;;17.00;;
64959;SDS011;51487;52.266;10.542;2022-12-16T15:57:31;23.30;;;17.13;;
64959;SDS011;51487;52.266;10.542;2022-12-16T16:03:04;22.88;;;17.60;;
64959;SDS011;51487;52.266;10.542;2022-12-16T16:06:19;26.48;;;18.25;;
64959;SDS011;51487;52.266;10.542;2022-12-16T16:09:10;25.45;;;18.08;;
64959;SDS011;51487;52.266;10.542;2022-12-16T16:11:59;24.63;;;17.75;;
64959;SDS011;51487;52.266;10.542;2022-12-16T16:14:43;27.60;;;17.75;;
64959;SDS011;51487;52.266;10.542;2022-12-16T16:17:27;26.17;;;18.13;;
64959;SDS011;51487;52.266;10.542;2022-12-16T16:20:13;23.35;;;17.17;;
64959;SDS011;51487;52.266;10.542;2022-12-16T16:22:59;25.25;;;18.63;;
64959;SDS011;51487;52.266;10.542;2022-12-16T16:25:44;27.65;;;18.73;;
64959;SDS011;51487;52.266;10.542;2022-12-16T16:28:30;26.95;;;18.65;;
64959;SDS011;51487;52.266;10.542;2022-12-16T16:31:15;26.73;;;19.60;;
64959;SDS011;51487;52.266;10.542;2022-12-16T16:33:59;28.20;;;19.50;;
64959;SDS011;51487;52.266;10.542;2022-12-16T16:36:44;27.13;;;19.70;;
64959;SDS011;51487;52.266;10.542;2022-12-16T16:39:33;23.92;;;19.23;;
64959;SDS011;51487;52.266;10.542;2022-12-16T16:42:27;27.15;;;17.63;;
64959;SDS011;51487;52.266;10.542;2022-12-16T16:45:12;25.02;;;17.17;;
64959;SDS011;51487;52.266;10.542;2022-12-16T16:48:05;25.23;;;17.70;;
64959;SDS011;51487;52.266;10.542;2022-12-16T16:50:58;23.88;;;16.52;;
64959;SDS011;51487;52.266;10.542;2022-12-16T16:53:45;26.00;;;17.50;;
64959;SDS011;51487;52.266;10.542;2022-12-16T16:56:30;34.22;;;18.52;;
64959;SDS011;51487;52.266;10.542;2022-12-16T16:59:17;25.95;;;17.92;;
64959;SDS011;51487;52.266;10.542;2022-12-16T17:02:16;24.75;;;17.92;;
64959;SDS011;51487;52.266;10.542;2022-12-16T17:05:03;27.52;;;17.10;;
64959;SDS011;51487;52.266;10.542;2022-12-16T17:07:48;24.02;;;17.42;;
64959;SDS011;51487;52.266;10.542;2022-12-16T17:10:32;30.88;;;19.17;;
64959;SDS011;51487;52.266;10.542;2022-12-16T17:13:16;25.40;;;18.52;;
64959;SDS011;51487;52.266;10.542;2022-12-16T17:16:00;27.15;;;18.67;;
64959;SDS011;51487;52.266;10.542;2022-12-16T17:18:44;31.92;;;20.55;;
64959;SDS011;51487;52.266;10.542;2022-12-16T17:21:28;26.33;;;19.65;;
64959;SDS011;51487;52.266;10.542;2022-12-16T17:24:12;35.45;;;19.83;;
64959;SDS011;51487;52.266;10.542;2022-12-16T17:26:56;27.25;;;20.35;;
64959;SDS011;51487;52.266;10.542;2022-12-16T17:29:40;29.30;;;19.73;;
64959;SDS011;51487;52.266;10.542;2022-12-16T17:32:24;26.23;;;19.20;;
64959;SDS011;51487;52.266;10.542;2022-12-16T17:35:11;29.23;;;20.25;;
64959;SDS011;51487;52.266;10.542;2022-12-16T17:37:56;25.67;;;20.00;;
64959;SDS011;51487;52.266;10.542;2022-12-16T17:40:40;31.83;;;19.70;;
64959;SDS011;51487;52.266;10.542;2022-12-16T17:43:24;29.20;;;20.23;;
64959;SDS011;51487;52.266;10.542;2022-12-16T17:46:09;28.80;;;20.10;;
64959;SDS011;51487;52.266;10.542;2022-12-16T17:48:54;30.48;;;19.38;;
64959;SDS011;51487;52.266;10.542;2022-12-16T17:51:41;32.22;;;20.67;;
64959;SDS011;51487;52.266;10.542;2022-12-16T17:54:25;27.23;;;18.58;;
64959;SDS011;51487;52.266;10.542;2022-12-16T17:57:09;26.98;;;18.65;;
64959;SDS011;51487;52.266;10.542;2022-12-16T17:59:54;32.03;;;20.35;;
64959;SDS011;51487;52.266;10.542;2022-12-16T18:02:38;26.75;;;19.33;;
64959;SDS011;51487;52.266;10.542;2022-12-16T18:05:23;29.27;;;19.60;;
64959;SDS011;51487;52.266;10.542;2022-12-16T18:08:07;29.27;;;19.60;;
64959;SDS011;51487;52.266;10.542;2022-12-16T18:10:52;25.85;;;20.13;;